• vieta
  • image
  • image
  • image
mod_vvisit_countermod_vvisit_countermod_vvisit_countermod_vvisit_countermod_vvisit_countermod_vvisit_countermod_vvisit_counter
mod_vvisit_counterŠiandien564
mod_vvisit_counterVakar1017
mod_vvisit_counterŠią savaitę1581
mod_vvisit_counterPraėjusią savaitę5315
mod_vvisit_counterŠį mėnesį17381
mod_vvisit_counterPraėjusį mėnesį23031
mod_vvisit_counterViso1003338

Mes turime: 26 svečius online
Jūsų IP: 54.166.207.223
 , 
Šiandien: Spa 23, 2018
Oro uostas / Informacija keleiviams / Keleivių terminalas

Keleivių terminalas

 

Keleivių terminalo adresas:

Tarptautinis Šiaulių oro uostas

Lakūnų g. 4, LT-77103 Šiauliai, Lietuva

 

Terminale teikiamos šios paslaugos:

 

 

- Muitinės paslaugos

- Pasienio kontrolės paslaugos

- Aviacijos saugumo paslaugos

- Kavinė

 

atvykimas atvykimas2 isvykimas isvykimas2

 

kavine kavine1 kavine2 terminalas terminalas2

Šiandien

Antradienis, 23 Spalis 2018

Orų prognozė aviacijai

[source: ADDS]
METAR
EYSA 231820Z 25011KT 9999 BKN017 BKN034 06/06 Q0984 WHT NOSIG =
TAF EYSA 231711Z 2318/2403 27014KT 9000 BKN025 TEMPO 2318/2324 5000 SHRA SCT005 BKN015CB TEMPO 2400/2403 30024G34KT BKN015CB
TAF
TAF EYSA 231711Z 2318/2403 27014KT 9000 BKN025 TEMPO 2318/2324 5000 SHRA SCT005 BKN015CB TEMPO 2400/2403 30024G34KT BKN015CB =
SR / SS: 05:14 / 15:10 UTC (EYSA 2018-10-23)

Paieška

Lankytojai

Mes turime 26 svečius online

tic logo lt